createdAt,value
2022-10-23T00:01:29.547Z,77.24
2022-10-23T00:04:04.315Z,76.62
2022-10-23T00:06:33.083Z,76.60
2022-10-23T00:09:00.435Z,77.20
2022-10-23T00:11:29.453Z,77.19
2022-10-23T00:13:58.432Z,76.86
2022-10-23T00:16:24.898Z,76.27
2022-10-23T00:18:51.347Z,76.06
2022-10-23T00:21:18.336Z,76.20
2022-10-23T00:23:45.027Z,76.46
2022-10-23T00:26:15.639Z,76.41
2022-10-23T00:28:48.288Z,75.99
2022-10-23T00:31:15.155Z,75.93
2022-10-23T00:33:42.635Z,76.69
2022-10-23T00:36:11.657Z,76.50
2022-10-23T00:38:39.013Z,76.47
2022-10-23T00:41:06.462Z,76.66
2022-10-23T00:43:33.935Z,76.61
2022-10-23T00:46:00.402Z,76.69
2022-10-23T00:48:28.089Z,76.61
2022-10-23T00:50:55.344Z,77.60
2022-10-23T00:53:22.754Z,77.29
2022-10-23T00:55:51.255Z,77.67
2022-10-23T00:58:20.938Z,79.00
2022-10-23T01:00:50.971Z,79.22
2022-10-23T01:03:21.449Z,78.75
2022-10-23T01:05:54.293Z,78.88
2022-10-23T01:08:45.749Z,78.24
2022-10-23T01:11:20.398Z,78.30
2022-10-23T01:16:48.248Z,77.95
2022-10-23T01:19:37.301Z,78.37
2022-10-23T01:22:32.371Z,78.52
2022-10-23T01:25:03.246Z,77.84
2022-10-23T01:27:39.743Z,78.37
2022-10-23T01:30:10.112Z,77.99
2022-10-23T01:33:01.635Z,78.13
2022-10-23T01:35:54.666Z,78.12
2022-10-23T01:38:35.377Z,78.11
2022-10-23T01:41:19.466Z,78.49
2022-10-23T01:44:14.383Z,79.41
2022-10-23T01:46:42.764Z,79.58
2022-10-23T01:49:13.339Z,79.43
2022-10-23T01:51:46.549Z,79.08
2022-10-23T01:54:16.697Z,79.05
2022-10-23T01:56:46.941Z,78.70
2022-10-23T01:59:20.973Z,79.03
2022-10-23T02:01:50.800Z,79.10
2022-10-23T02:04:31.222Z,79.16
2022-10-23T02:06:57.943Z,79.51
2022-10-23T02:09:24.473Z,79.59
2022-10-23T02:11:59.975Z,79.27
2022-10-23T02:14:37.873Z,80.05
2022-10-23T02:17:16.694Z,79.76
2022-10-23T02:19:55.187Z,79.69
2022-10-23T02:22:28.963Z,78.96
2022-10-23T02:25:09.232Z,79.12
2022-10-23T02:27:45.100Z,79.69
2022-10-23T02:30:15.394Z,80.99
2022-10-23T02:32:49.952Z,81.47
2022-10-23T02:35:19.402Z,81.64
2022-10-23T02:37:55.324Z,80.69
2022-10-23T02:40:30.446Z,80.48
2022-10-23T02:43:01.967Z,80.49
2022-10-23T02:45:37.977Z,80.99
2022-10-23T02:48:17.136Z,80.99
2022-10-23T02:50:58.720Z,81.49
2022-10-23T02:56:53.146Z,81.29
2022-10-23T02:59:26.917Z,80.57
2022-10-23T03:02:02.701Z,80.38
2022-10-23T03:04:32.233Z,81.56
2022-10-23T03:06:59.036Z,81.67
2022-10-23T03:09:27.005Z,81.34
2022-10-23T03:11:53.465Z,81.02
2022-10-23T03:14:19.909Z,80.22
2022-10-23T03:16:46.328Z,80.24
2022-10-23T03:21:44.190Z,80.65
2022-10-23T03:24:10.664Z,80.31
2022-10-23T03:26:41.426Z,79.94
2022-10-23T03:29:07.875Z,79.96
2022-10-23T03:31:40.590Z,79.62
2022-10-23T03:34:11.037Z,79.36
2022-10-23T03:36:39.879Z,79.25
2022-10-23T03:39:07.836Z,79.28
2022-10-23T03:41:34.487Z,79.09
2022-10-23T03:44:01.061Z,79.17
2022-10-23T03:46:27.538Z,80.15
2022-10-23T03:48:56.795Z,79.82
2022-10-23T03:51:23.406Z,79.39
2022-10-23T03:53:49.907Z,79.35
2022-10-23T03:56:16.698Z,80.05
2022-10-23T03:58:44.910Z,80.25
2022-10-23T04:01:13.200Z,80.14
2022-10-23T04:03:39.698Z,80.66
2022-10-23T04:06:06.443Z,80.58
2022-10-23T04:08:32.909Z,79.96
2022-10-23T04:10:59.573Z,79.96
2022-10-23T04:13:33.862Z,80.54
2022-10-23T04:16:00.328Z,80.64
2022-10-23T04:18:26.945Z,80.90
2022-10-23T04:20:53.994Z,80.66
2022-10-23T04:23:21.196Z,81.03
2022-10-23T04:28:23.551Z,81.18
2022-10-23T04:30:50.025Z,81.21
2022-10-23T04:33:16.689Z,81.53
2022-10-23T04:35:43.870Z,80.80
2022-10-23T04:38:11.034Z,81.09
2022-10-23T04:40:38.092Z,81.40
2022-10-23T04:43:05.136Z,82.17
2022-10-23T04:45:36.322Z,82.02
2022-10-23T04:48:02.760Z,82.68
2022-10-23T04:50:40.447Z,82.06
2022-10-23T04:53:28.490Z,82.59
2022-10-23T04:56:15.278Z,82.46
2022-10-23T04:58:58.291Z,83.25
2022-10-23T05:01:24.890Z,83.12
2022-10-23T05:03:51.454Z,83.40
2022-10-23T05:06:18.166Z,83.10
2022-10-23T05:08:53.276Z,83.29
2022-10-23T05:11:28.879Z,83.30
2022-10-23T05:13:55.429Z,83.49
2022-10-23T05:16:32.934Z,83.79
2022-10-23T05:19:00.161Z,83.23
2022-10-23T05:21:29.888Z,83.80
2022-10-23T05:26:32.024Z,82.87
2022-10-23T05:29:03.641Z,82.88
2022-10-23T05:31:30.442Z,83.24
2022-10-23T05:34:04.664Z,83.35
2022-10-23T05:36:31.655Z,83.92
2022-10-23T05:38:59.081Z,83.92
2022-10-23T05:41:26.225Z,83.34
2022-10-23T05:43:57.645Z,82.66
2022-10-23T05:46:43.074Z,83.39
2022-10-23T05:49:26.006Z,83.82
2022-10-23T05:52:12.978Z,83.92
2022-10-23T05:54:47.270Z,83.93
2022-10-23T05:57:39.558Z,84.24
2022-10-23T06:00:09.686Z,84.64
2022-10-23T06:02:42.678Z,84.92
2022-10-23T06:05:22.792Z,85.00
2022-10-23T06:08:10.466Z,85.25
2022-10-23T06:10:37.422Z,85.10
2022-10-23T06:13:07.384Z,85.40
2022-10-23T06:15:34.135Z,85.62
2022-10-23T06:18:05.600Z,85.49
2022-10-23T06:20:37.168Z,84.81
2022-10-23T06:23:16.017Z,84.86
2022-10-23T06:26:03.443Z,85.15
2022-10-23T06:28:37.294Z,85.06
2022-10-23T06:31:05.776Z,85.39
2022-10-23T06:33:32.454Z,85.74
2022-10-23T06:35:59.160Z,85.37
2022-10-23T06:38:25.772Z,84.90
2022-10-23T06:40:56.618Z,85.19
2022-10-23T06:43:34.559Z,84.88
2022-10-23T06:46:24.518Z,85.32
2022-10-23T06:49:03.482Z,85.45
2022-10-23T06:51:33.798Z,84.75
2022-10-23T06:54:00.352Z,84.95
2022-10-23T06:56:47.044Z,85.01
2022-10-23T06:59:17.179Z,84.54
2022-10-23T07:01:43.779Z,84.62
2022-10-23T07:04:13.642Z,84.74
2022-10-23T07:06:41.665Z,85.10
2022-10-23T07:09:09.387Z,85.09
2022-10-23T07:11:51.172Z,84.98
2022-10-23T07:14:19.884Z,85.54
2022-10-23T07:16:46.794Z,85.65
2022-10-23T07:19:13.241Z,85.59
2022-10-23T07:21:39.696Z,85.77
2022-10-23T07:24:23.288Z,85.63
2022-10-23T07:29:17.014Z,85.87
2022-10-23T07:31:43.642Z,85.74
2022-10-23T07:34:32.014Z,85.84
2022-10-23T07:37:17.955Z,85.81
2022-10-23T07:39:45.174Z,85.91
2022-10-23T07:42:11.920Z,85.86
2022-10-23T07:44:40.233Z,85.83
2022-10-23T07:47:06.942Z,85.76
2022-10-23T07:49:33.461Z,85.89
2022-10-23T07:52:00.513Z,85.97
2022-10-23T07:54:35.770Z,85.53
2022-10-23T07:57:19.824Z,85.47
2022-10-23T07:59:54.539Z,86.63
2022-10-23T08:02:23.148Z,86.83
2022-10-23T08:04:50.488Z,86.27
2022-10-23T08:07:40.629Z,86.49
2022-10-23T08:10:07.564Z,85.91
2022-10-23T08:12:37.557Z,86.09
2022-10-23T08:15:04.747Z,86.21
2022-10-23T08:17:41.400Z,85.68
2022-10-23T08:20:14.156Z,85.15
2022-10-23T08:22:43.213Z,84.60
2022-10-23T08:25:11.349Z,84.80
2022-10-23T08:27:38.255Z,85.40
2022-10-23T08:30:05.883Z,85.48
2022-10-23T08:32:32.402Z,84.79
2022-10-23T08:35:02.833Z,84.64
2022-10-23T08:37:31.784Z,84.03
2022-10-23T08:39:58.350Z,84.22
2022-10-23T08:42:51.256Z,84.81
2022-10-23T08:45:36.308Z,84.10
2022-10-23T08:48:22.942Z,83.78
2022-10-23T08:51:21.866Z,84.00
2022-10-23T08:53:58.682Z,83.70
2022-10-23T08:56:32.965Z,83.65
2022-10-23T08:59:09.430Z,83.17
2022-10-23T09:01:43.450Z,83.67
2022-10-23T09:04:12.670Z,83.02
2022-10-23T09:09:55.060Z,83.67
2022-10-23T09:12:24.372Z,83.06
2022-10-23T09:15:14.623Z,83.00
2022-10-23T09:17:43.567Z,82.92
2022-10-23T09:20:34.050Z,82.47
2022-10-23T09:23:04.188Z,81.74
2022-10-23T09:25:35.349Z,81.70
2022-10-23T09:28:05.374Z,81.88
2022-10-23T09:30:42.542Z,82.00
2022-10-23T09:33:22.973Z,81.73
2022-10-23T09:35:54.078Z,82.03
2022-10-23T09:38:34.664Z,81.63
2022-10-23T09:41:21.356Z,81.97
2022-10-23T09:43:59.197Z,81.47
2022-10-23T09:46:36.215Z,81.26
2022-10-23T09:49:05.683Z,81.16
2022-10-23T09:51:32.418Z,81.08
2022-10-23T09:54:00.719Z,81.31
2022-10-23T09:56:34.885Z,81.11
2022-10-23T09:59:25.179Z,80.41
2022-10-23T10:01:53.249Z,80.34
2022-10-23T10:04:41.730Z,80.27
2022-10-23T10:07:32.236Z,79.82
2022-10-23T10:10:01.224Z,80.04
2022-10-23T10:12:41.680Z,80.19
2022-10-23T10:15:19.365Z,79.60
2022-10-23T10:18:02.097Z,80.31
2022-10-23T10:21:03.760Z,80.03
2022-10-23T10:23:45.343Z,79.74
2022-10-23T10:26:53.271Z,79.75
2022-10-23T10:29:31.586Z,80.07
2022-10-23T10:32:18.221Z,79.61
2022-10-23T10:35:04.691Z,79.50
2022-10-23T10:37:53.801Z,79.76
2022-10-23T10:40:38.322Z,79.60
2022-10-23T10:43:39.247Z,79.54
2022-10-23T10:46:11.615Z,79.70
2022-10-23T10:48:47.853Z,79.98
2022-10-23T10:51:46.898Z,78.75
2022-10-23T10:54:25.712Z,79.35
2022-10-23T10:56:52.315Z,79.46
2022-10-23T10:59:29.036Z,79.77
2022-10-23T11:02:23.462Z,80.41
2022-10-23T11:05:05.542Z,79.01
2022-10-23T11:07:41.120Z,79.43
2022-10-23T11:10:18.237Z,79.38
2022-10-23T11:12:46.933Z,79.41
2022-10-23T11:15:22.381Z,79.39
2022-10-23T11:17:53.897Z,79.47
2022-10-23T11:20:39.936Z,78.88
2022-10-23T11:23:40.110Z,79.10
2022-10-23T11:26:24.334Z,79.48
2022-10-23T11:29:20.818Z,79.35
2022-10-23T11:32:22.651Z,79.20
2022-10-23T11:35:01.268Z,78.06
2022-10-23T11:37:27.798Z,77.79
2022-10-23T11:40:15.315Z,78.56
2022-10-23T11:42:42.005Z,78.06
2022-10-23T11:45:27.457Z,78.09
2022-10-23T11:48:01.567Z,76.70
2022-10-23T11:50:31.407Z,76.84
2022-10-23T11:53:15.962Z,78.27
2022-10-23T11:56:13.383Z,76.72
2022-10-23T11:58:45.827Z,77.76
2022-10-23T12:01:19.877Z,76.23
2022-10-23T12:03:53.775Z,77.69
2022-10-23T12:06:37.957Z,76.90
2022-10-23T12:09:39.889Z,76.34
2022-10-23T12:12:09.336Z,75.20
2022-10-23T12:14:41.692Z,75.30
2022-10-23T12:17:23.829Z,78.17
2022-10-23T12:20:07.829Z,76.29
2022-10-23T12:22:47.484Z,75.74
2022-10-23T12:25:24.361Z,76.75
2022-10-23T12:28:39.104Z,77.57
2022-10-23T12:31:51.181Z,76.91
2022-10-23T12:34:46.884Z,75.89
2022-10-23T12:37:31.745Z,77.38
2022-10-23T12:39:59.009Z,76.16
2022-10-23T12:42:28.904Z,75.54
2022-10-23T12:44:59.834Z,75.69
2022-10-23T12:47:26.647Z,76.53
2022-10-23T12:49:53.411Z,76.06
2022-10-23T12:52:21.372Z,75.83
2022-10-23T12:54:50.703Z,74.78
2022-10-23T12:57:30.041Z,76.17
2022-10-23T13:00:02.263Z,76.93
2022-10-23T13:02:31.457Z,76.85
2022-10-23T13:05:02.115Z,75.50
2022-10-23T13:07:31.733Z,75.50
2022-10-23T13:10:02.392Z,76.12
2022-10-23T13:12:35.358Z,76.18
2022-10-23T13:15:07.603Z,76.29
2022-10-23T13:17:42.980Z,76.49
2022-10-23T13:20:19.084Z,76.60
2022-10-23T13:22:48.055Z,78.08
2022-10-23T13:25:29.628Z,76.13
2022-10-23T13:28:07.947Z,75.77
2022-10-23T13:30:40.228Z,76.13
2022-10-23T13:33:22.403Z,76.50
2022-10-23T13:35:59.582Z,76.59
2022-10-23T13:38:34.896Z,76.12
2022-10-23T13:41:03.887Z,76.26
2022-10-23T13:43:31.830Z,75.58
2022-10-23T13:45:59.807Z,75.22
2022-10-23T13:48:27.496Z,76.64
2022-10-23T13:50:54.360Z,76.04
2022-10-23T13:53:20.828Z,76.31
2022-10-23T13:55:52.548Z,75.70
2022-10-23T13:58:21.348Z,76.11
2022-10-23T14:00:49.637Z,75.14
2022-10-23T14:03:17.202Z,75.64
2022-10-23T14:05:43.613Z,75.21
2022-10-23T14:08:10.205Z,75.46
2022-10-23T14:10:36.778Z,74.84
2022-10-23T14:13:03.227Z,75.88
2022-10-23T14:15:29.676Z,75.04
2022-10-23T14:17:59.118Z,75.65
2022-10-23T14:20:27.884Z,75.15
2022-10-23T14:22:54.684Z,75.60
2022-10-23T14:25:21.647Z,75.77
2022-10-23T14:27:48.297Z,76.58
2022-10-23T14:30:14.983Z,76.38
2022-10-23T14:32:41.771Z,77.27
2022-10-23T14:35:08.641Z,77.26
2022-10-23T14:37:35.311Z,75.92
2022-10-23T14:40:01.841Z,77.00
2022-10-23T14:42:34.023Z,76.37
2022-10-23T14:45:02.180Z,76.31
2022-10-23T14:47:29.425Z,76.81
2022-10-23T14:49:56.269Z,76.37
2022-10-23T14:52:23.730Z,76.53
2022-10-23T14:54:53.977Z,77.15
2022-10-23T14:57:22.204Z,76.96
2022-10-23T14:59:49.596Z,77.30
2022-10-23T15:02:16.774Z,76.75
2022-10-23T15:04:43.307Z,76.22
2022-10-23T15:07:09.775Z,77.06
2022-10-23T15:09:36.623Z,76.91
2022-10-23T15:12:04.461Z,76.99
2022-10-23T15:14:31.069Z,77.54
2022-10-23T15:16:57.488Z,77.44
2022-10-23T15:19:24.187Z,76.85
2022-10-23T15:21:51.420Z,77.22
2022-10-23T15:24:18.385Z,77.42
2022-10-23T15:26:45.048Z,77.58
2022-10-23T15:29:11.989Z,77.28
2022-10-23T15:31:38.523Z,77.59
2022-10-23T15:34:05.897Z,76.49
2022-10-23T15:36:32.546Z,76.69
2022-10-23T15:38:59.102Z,76.74
2022-10-23T15:41:29.041Z,77.40
2022-10-23T15:43:55.491Z,77.77
2022-10-23T15:46:21.950Z,77.09
2022-10-23T15:48:48.366Z,77.11
2022-10-23T15:51:14.764Z,77.31
2022-10-23T15:53:41.189Z,78.07
2022-10-23T15:56:07.680Z,77.51
2022-10-23T15:58:34.163Z,77.31
2022-10-23T16:01:06.420Z,77.91
2022-10-23T16:03:37.589Z,77.59
2022-10-23T16:06:14.885Z,77.49
2022-10-23T16:08:43.645Z,77.42
2022-10-23T16:11:22.223Z,76.85
2022-10-23T16:13:48.891Z,77.74
2022-10-23T16:16:16.518Z,77.66
2022-10-23T16:18:44.495Z,77.68
2022-10-23T16:21:22.635Z,77.91
2022-10-23T16:23:50.270Z,77.46
2022-10-23T16:26:17.319Z,77.91
2022-10-23T16:28:47.071Z,77.87
2022-10-23T16:31:20.522Z,77.31
2022-10-23T16:33:48.117Z,78.15
2022-10-23T16:36:14.863Z,77.91
2022-10-23T16:39:02.535Z,78.04
2022-10-23T16:41:47.707Z,78.11
2022-10-23T16:44:17.960Z,78.42
2022-10-23T16:46:56.106Z,77.97
2022-10-23T16:49:22.666Z,78.34
2022-10-23T16:51:49.092Z,79.02
2022-10-23T16:54:15.620Z,78.85
2022-10-23T16:56:42.046Z,78.40
2022-10-23T16:59:09.710Z,78.72
2022-10-23T17:01:36.352Z,78.15
2022-10-23T17:04:02.835Z,78.50
2022-10-23T17:06:31.632Z,78.83
2022-10-23T17:08:59.311Z,78.94
2022-10-23T17:11:34.932Z,78.30
2022-10-23T17:14:02.876Z,78.48
2022-10-23T17:16:44.488Z,78.48
2022-10-23T17:19:20.954Z,78.91
2022-10-23T17:21:55.148Z,78.24
2022-10-23T17:24:22.842Z,78.92
2022-10-23T17:26:49.325Z,79.47
2022-10-23T17:29:16.215Z,78.43
2022-10-23T17:31:45.788Z,79.34
2022-10-23T17:34:15.374Z,78.77
2022-10-23T17:36:45.680Z,78.90
2022-10-23T17:39:14.305Z,78.57
2022-10-23T17:41:41.586Z,78.51
2022-10-23T17:44:08.219Z,79.03
2022-10-23T17:46:34.791Z,79.34
2022-10-23T17:51:35.343Z,79.35
2022-10-23T17:54:08.234Z,79.64
2022-10-23T17:56:36.481Z,79.05
2022-10-23T17:59:07.605Z,78.84
2022-10-23T18:01:34.595Z,78.24
2022-10-23T18:04:04.597Z,78.15
2022-10-23T18:06:34.776Z,78.74
2022-10-23T18:09:03.248Z,78.45
2022-10-23T18:11:33.497Z,78.40
2022-10-23T18:16:32.601Z,77.80
2022-10-23T18:19:00.573Z,78.65
2022-10-23T18:21:27.335Z,79.23
2022-10-23T18:23:54.205Z,78.73
2022-10-23T18:26:24.390Z,78.66
2022-10-23T18:28:53.062Z,78.86
2022-10-23T18:31:21.030Z,78.73
2022-10-23T18:33:47.703Z,78.99
2022-10-23T18:36:15.416Z,79.48
2022-10-23T18:38:42.086Z,79.21
2022-10-23T18:41:08.539Z,79.24
2022-10-23T18:43:44.114Z,78.39
2022-10-23T18:46:13.226Z,79.06
2022-10-23T18:48:40.787Z,79.48
2022-10-23T18:51:19.886Z,79.32
2022-10-23T18:53:46.744Z,78.92
2022-10-23T18:56:22.454Z,79.26
2022-10-23T18:58:54.173Z,78.90
2022-10-23T19:01:21.923Z,79.05
2022-10-23T19:03:48.616Z,78.89
2022-10-23T19:06:15.757Z,79.61
2022-10-23T19:08:44.323Z,79.40
2022-10-23T19:11:12.791Z,79.53
2022-10-23T19:13:40.392Z,79.57
2022-10-23T19:16:10.289Z,79.62
2022-10-23T19:18:40.156Z,79.84
2022-10-23T19:21:07.602Z,79.61
2022-10-23T19:23:36.388Z,79.97
2022-10-23T19:26:09.140Z,80.15
2022-10-23T19:28:42.349Z,79.78
2022-10-23T19:31:09.915Z,80.35
2022-10-23T19:33:38.442Z,80.13
2022-10-23T19:36:08.022Z,80.41
2022-10-23T19:38:40.190Z,80.80
2022-10-23T19:41:07.255Z,80.14
2022-10-23T19:43:34.116Z,80.38
2022-10-23T19:46:04.039Z,80.68
2022-10-23T19:48:33.118Z,80.40
2022-10-23T19:50:59.707Z,80.53
2022-10-23T19:53:26.200Z,80.23
2022-10-23T19:56:04.683Z,80.50
2022-10-23T19:58:31.166Z,80.83
2022-10-23T20:00:57.688Z,81.08
2022-10-23T20:03:24.318Z,80.24
2022-10-23T20:05:50.745Z,80.97
2022-10-23T20:08:17.323Z,80.45
2022-10-23T20:10:46.485Z,80.19
2022-10-23T20:13:20.275Z,80.60
2022-10-23T20:15:47.258Z,80.31
2022-10-23T20:18:13.756Z,81.10
2022-10-23T20:20:41.688Z,80.95
2022-10-23T20:23:08.136Z,81.14
2022-10-23T20:25:34.608Z,81.15
2022-10-23T20:28:01.051Z,81.40
2022-10-23T20:30:27.607Z,81.92
2022-10-23T20:32:54.288Z,81.33
2022-10-23T20:35:20.733Z,81.75
2022-10-23T20:37:47.349Z,81.18
2022-10-23T20:40:13.828Z,80.85
2022-10-23T20:42:40.296Z,81.50
2022-10-23T20:45:07.220Z,81.89
2022-10-23T20:47:33.682Z,81.65
2022-10-23T20:50:00.235Z,81.85
2022-10-23T20:52:29.374Z,81.84
2022-10-23T20:54:55.849Z,82.09
2022-10-23T20:57:22.291Z,81.81
2022-10-23T20:59:48.733Z,82.19
2022-10-23T21:02:15.281Z,82.57
2022-10-23T21:04:41.868Z,81.77
2022-10-23T21:07:10.429Z,81.13
2022-10-23T21:09:38.317Z,80.60
2022-10-23T21:12:06.537Z,82.06
2022-10-23T21:14:33.617Z,82.03
2022-10-23T21:17:00.345Z,82.52
2022-10-23T21:19:26.836Z,81.65
2022-10-23T21:21:54.521Z,82.48
2022-10-23T21:24:20.999Z,83.10
2022-10-23T21:26:47.512Z,82.60
2022-10-23T21:29:19.424Z,82.88
2022-10-23T21:32:04.817Z,82.49
2022-10-23T21:34:31.599Z,81.25
2022-10-23T21:37:14.476Z,80.63
2022-10-23T21:39:46.014Z,82.09
2022-10-23T21:42:14.470Z,80.81
2022-10-23T21:44:41.275Z,79.26
2022-10-23T21:47:07.933Z,79.96
2022-10-23T21:49:34.497Z,81.09
2022-10-23T21:52:00.903Z,80.13
2022-10-23T21:54:27.386Z,80.50
2022-10-23T21:56:54.101Z,80.94
2022-10-23T21:59:24.155Z,81.66
2022-10-23T22:01:51.695Z,82.82
2022-10-23T22:04:19.767Z,83.14
2022-10-23T22:06:48.074Z,81.99
2022-10-23T22:09:19.178Z,80.50
2022-10-23T22:11:45.876Z,80.45
2022-10-23T22:14:12.316Z,82.12
2022-10-23T22:16:38.746Z,80.88
2022-10-23T22:19:05.213Z,79.95
2022-10-23T22:21:31.744Z,80.61
2022-10-23T22:24:00.332Z,80.01
2022-10-23T22:26:32.109Z,80.33
2022-10-23T22:29:07.774Z,80.67
2022-10-23T22:31:35.201Z,80.06
2022-10-23T22:34:13.267Z,79.96
2022-10-23T22:36:50.414Z,81.50
2022-10-23T22:39:17.128Z,83.28
2022-10-23T22:41:43.623Z,84.11
2022-10-23T22:44:14.710Z,83.33
2022-10-23T22:46:42.142Z,82.36
2022-10-23T22:49:08.619Z,82.11
2022-10-23T22:51:35.062Z,81.83
2022-10-23T22:54:01.513Z,82.32
2022-10-23T22:56:30.320Z,82.29
2022-10-23T22:58:57.801Z,83.01
2022-10-23T23:01:28.092Z,82.74
2022-10-23T23:03:54.845Z,82.76
2022-10-23T23:06:22.079Z,81.76
2022-10-23T23:08:49.434Z,81.38
2022-10-23T23:11:18.222Z,82.55
2022-10-23T23:13:45.680Z,83.24
2022-10-23T23:16:24.044Z,82.67
2022-10-23T23:18:51.290Z,83.26
2022-10-23T23:21:19.048Z,83.11
2022-10-23T23:23:46.586Z,83.45
2022-10-23T23:26:13.790Z,83.56
2022-10-23T23:28:40.897Z,84.22
2022-10-23T23:31:12.365Z,84.14
2022-10-23T23:33:38.870Z,83.18
2022-10-23T23:36:10.405Z,82.16
2022-10-23T23:38:37.920Z,82.40
2022-10-23T23:41:05.631Z,81.78
2022-10-23T23:43:32.698Z,82.38
2022-10-23T23:45:59.319Z,82.63
2022-10-23T23:48:25.880Z,81.57
2022-10-23T23:50:52.385Z,81.88
2022-10-23T23:53:18.825Z,81.32
2022-10-23T23:55:45.322Z,79.41
2022-10-23T23:58:12.508Z,79.05
